createdAt,value
2023-05-10T05:24:53.676Z,3.00
2023-05-10T05:25:54.603Z,2.90
2023-05-10T05:26:55.312Z,2.60
2023-05-10T05:27:55.216Z,2.60
2023-05-10T05:28:54.645Z,2.30
2023-05-10T05:29:54.564Z,2.30
2023-05-10T05:30:54.579Z,2.30
2023-05-10T05:31:55.637Z,2.50
2023-05-10T05:32:54.522Z,2.50
2023-05-10T05:33:54.511Z,2.30
2023-05-10T05:34:54.646Z,2.20
2023-05-10T05:35:54.484Z,2.40
2023-05-10T05:36:54.472Z,2.20
2023-05-10T05:37:54.464Z,2.30
2023-05-10T05:38:54.464Z,2.30
2023-05-10T05:39:54.483Z,2.50
2023-05-10T05:40:54.421Z,2.50
2023-05-10T05:41:54.477Z,2.90
2023-05-10T05:42:54.435Z,2.70
2023-05-10T05:43:54.401Z,3.00
2023-05-10T05:44:54.450Z,2.50
2023-05-10T05:45:54.464Z,2.60
2023-05-10T06:20:33.109Z,3.60
2023-05-10T06:21:34.052Z,3.70
2023-05-10T06:22:34.084Z,3.70
2023-05-10T06:23:34.045Z,3.70
2023-05-10T06:24:34.049Z,3.70
2023-05-10T06:25:34.011Z,3.50
2023-05-10T06:26:34.034Z,3.60
2023-05-10T06:27:33.980Z,3.90
2023-05-10T06:28:34.054Z,4.10
2023-05-10T06:29:33.966Z,3.30
2023-05-10T06:30:33.959Z,4.70
2023-05-10T06:31:34.007Z,4.00
2023-05-10T06:32:33.939Z,3.50
2023-05-10T06:33:33.953Z,3.80
2023-05-10T06:34:33.889Z,3.60
2023-05-10T06:35:33.904Z,3.30
2023-05-10T06:36:33.879Z,3.30
2023-05-10T06:37:33.870Z,4.30
2023-05-10T06:38:33.867Z,4.20
2023-05-10T06:39:33.895Z,4.50
2023-05-10T06:40:33.844Z,4.40
2023-05-10T06:41:33.834Z,3.80
2023-05-10T06:42:33.824Z,3.30
2023-05-10T06:43:33.797Z,3.30
2023-05-10T06:44:33.791Z,3.10
2023-05-10T06:45:33.841Z,3.40
2023-05-10T06:46:33.773Z,4.70
2023-05-10T06:47:34.735Z,3.40
2023-05-10T06:48:33.739Z,3.30
2023-05-10T06:49:33.727Z,3.10
2023-05-10T06:50:33.766Z,2.70
2023-05-10T10:33:42.983Z,2.90
2023-05-10T10:34:23.277Z,3.10
2023-05-10T10:35:23.362Z,2.70
2023-05-10T10:36:23.221Z,2.70
2023-05-10T10:37:23.228Z,2.80
2023-05-10T10:38:23.167Z,2.80
2023-05-10T10:39:22.906Z,2.60
2023-05-10T10:40:23.075Z,2.80
2023-05-10T10:41:22.868Z,2.30
2023-05-10T14:27:45.809Z,1.10
2023-05-10T14:28:46.761Z,1.20
2023-05-10T14:29:46.744Z,1.20
2023-05-10T14:30:46.974Z,1.10
2023-05-10T14:34:53.991Z,1.40
2023-05-10T14:37:21.425Z,1.20
2023-05-10T14:38:22.657Z,1.20
2023-05-10T14:39:22.637Z,1.20
2023-05-10T14:40:22.318Z,1.10
2023-05-10T14:41:22.350Z,1.40
2023-05-10T14:44:31.618Z,1.40
2023-05-10T14:44:36.996Z,1.30
2023-05-10T14:45:37.025Z,1.30
2023-05-10T14:46:37.238Z,1.30
2023-05-10T14:51:35.364Z,1.60
